Inks Lake Village, Texas
Current Conditions -  °F | °C
As of 6:53 PM on Wednesday 22 Oct 2014 (Local Time) from KBMQ Reporting Station
Clear Clear  
Wind Chill: 75°   Ceiling: Unl
Heat Index: 75°   Visibility: 10mi
Dew Point: 56°   Wind: 0mph
Humidity: 51%   Direction: NA
Pressure: 30.1"   Gusts: NA
Location:  30.7573°N, 98.4911°W
Report Text: KBMQ 222353Z AUTO 00000KT 10SM CLR 24/13 A3010 RMK AO2 SLP180 T02390133 10272 20239 53006
Loading
Personal Weather Stations






























Interactive Weather Map
Tropical Storm Tracking
New forecast layout! Learn more

10-Day Weather Forecast

Advertisements
Track Severe Weather on mobile